createdAt,value
2018-05-25T00:00:30.705Z,83.90
2018-05-25T00:02:58.961Z,88.17
2018-05-25T00:05:27.220Z,88.70
2018-05-25T00:07:56.249Z,98.83
2018-05-25T00:10:24.523Z,79.77
2018-05-25T00:12:52.768Z,75.50
2018-05-25T00:15:21.782Z,82.03
2018-05-25T00:17:50.047Z,77.07
2018-05-25T00:20:19.063Z,64.53
2018-05-25T00:22:47.324Z,68.23
2018-05-25T00:25:15.584Z,72.63
2018-05-25T00:27:44.631Z,73.53
2018-05-25T00:30:12.892Z,78.67
2018-05-25T00:32:41.157Z,77.70
2018-05-25T00:35:09.404Z,75.90
2018-05-25T00:37:38.430Z,74.20
2018-05-25T00:40:06.677Z,80.83
2018-05-25T00:42:35.698Z,77.23
2018-05-25T00:45:03.972Z,68.47
2018-05-25T00:47:32.222Z,72.70
2018-05-25T00:50:01.255Z,77.93
2018-05-25T00:52:29.517Z,72.83
2018-05-25T00:55:09.547Z,92.50
2018-05-25T00:57:38.806Z,85.17
2018-05-25T01:00:07.071Z,92.97
2018-05-25T01:02:35.367Z,94.27
2018-05-25T01:05:03.632Z,99.40
2018-05-25T01:07:31.907Z,103.67
2018-05-25T01:10:00.172Z,106.10
2018-05-25T01:12:28.448Z,103.33
2018-05-25T01:14:56.712Z,107.20
2018-05-25T01:17:24.966Z,104.70
2018-05-25T01:19:53.241Z,95.83
2018-05-25T01:22:21.506Z,97.73
2018-05-25T01:24:50.556Z,86.60
2018-05-25T01:27:18.821Z,95.83
2018-05-25T01:29:47.067Z,93.03
2018-05-25T01:32:15.342Z,95.90
2018-05-25T01:34:43.604Z,97.83
2018-05-25T01:37:12.680Z,95.87
2018-05-25T01:39:40.940Z,93.90
2018-05-25T01:42:09.211Z,94.00
2018-05-25T01:44:39.009Z,93.17
2018-05-25T01:47:07.261Z,79.93
2018-05-25T01:49:35.534Z,77.10
2018-05-25T01:52:03.797Z,78.77
2018-05-25T01:54:32.067Z,84.73
2018-05-25T01:57:01.122Z,79.13
2018-05-25T01:59:29.380Z,75.07
2018-05-25T02:01:57.640Z,77.97
2018-05-25T02:04:25.902Z,82.97
2018-05-25T02:06:54.218Z,78.33
2018-05-25T02:09:22.489Z,75.10
2018-05-25T02:11:50.750Z,68.93
2018-05-25T02:14:19.008Z,63.07
2018-05-25T02:16:47.264Z,64.70
2018-05-25T02:19:16.289Z,53.27
2018-05-25T02:21:44.565Z,58.60
2018-05-25T02:24:12.828Z,51.40
2018-05-25T02:26:41.099Z,50.87
2018-05-25T02:29:09.378Z,45.57
2018-05-25T02:31:37.662Z,48.80
2018-05-25T02:34:05.919Z,44.00
2018-05-25T02:36:34.235Z,46.97
2018-05-25T02:39:02.493Z,43.07
2018-05-25T02:41:30.780Z,51.90
2018-05-25T02:43:59.037Z,45.80
2018-05-25T02:46:27.300Z,44.17
2018-05-25T02:48:56.316Z,47.17
2018-05-25T02:51:24.582Z,48.37
2018-05-25T02:53:52.840Z,41.93
2018-05-25T02:56:21.878Z,41.80
2018-05-25T02:58:50.177Z,43.47
2018-05-25T03:01:18.423Z,47.03
2018-05-25T03:03:46.678Z,44.67
2018-05-25T03:06:14.947Z,43.93
2018-05-25T03:08:43.963Z,39.60
2018-05-25T03:11:12.222Z,47.33
2018-05-25T03:13:40.488Z,42.30
2018-05-25T03:16:08.754Z,43.73
2018-05-25T03:18:37.801Z,46.53
2018-05-25T03:21:06.048Z,56.63
2018-05-25T03:23:34.300Z,63.80
2018-05-25T03:26:03.322Z,54.50
2018-05-25T03:28:31.593Z,63.63
2018-05-25T03:31:00.724Z,60.07
2018-05-25T03:33:28.964Z,66.93
2018-05-25T03:35:57.236Z,71.80
2018-05-25T03:38:25.498Z,77.27
2018-05-25T03:40:54.518Z,80.30
2018-05-25T03:43:22.800Z,67.20
2018-05-25T03:45:51.055Z,70.43
2018-05-25T03:48:19.319Z,65.83
2018-05-25T03:50:48.340Z,67.70
2018-05-25T03:53:16.647Z,71.47
2018-05-25T03:55:44.913Z,70.40
2018-05-25T03:58:13.161Z,76.57
2018-05-25T04:00:53.613Z,67.03
2018-05-25T04:03:23.541Z,80.87
2018-05-25T04:05:51.807Z,71.03
2018-05-25T04:08:20.067Z,81.87
2018-05-25T04:10:49.118Z,77.03
2018-05-25T04:13:17.362Z,80.53
2018-05-25T04:15:45.615Z,76.10
2018-05-25T04:18:14.637Z,75.17
2018-05-25T04:20:42.895Z,76.47
2018-05-25T04:23:11.216Z,69.67
2018-05-25T04:25:39.493Z,67.07
2018-05-25T04:28:07.763Z,66.30
2018-05-25T04:30:36.017Z,57.03
2018-05-25T04:33:04.389Z,62.00
2018-05-25T04:35:32.680Z,69.30
2018-05-25T04:38:00.916Z,60.57
2018-05-25T04:40:29.966Z,59.80
2018-05-25T04:42:58.223Z,54.17
2018-05-25T04:45:26.492Z,56.30
2018-05-25T04:47:54.783Z,68.27
2018-05-25T04:50:23.044Z,60.83
2018-05-25T04:52:51.295Z,56.63
2018-05-25T04:55:20.331Z,59.63
2018-05-25T04:57:48.585Z,67.87
2018-05-25T05:00:16.885Z,59.20
2018-05-25T05:02:45.421Z,62.27
2018-05-25T05:05:14.528Z,73.17
2018-05-25T05:07:42.831Z,68.43
2018-05-25T05:10:11.201Z,69.30
2018-05-25T05:12:39.479Z,59.80
2018-05-25T05:15:07.743Z,61.60
2018-05-25T05:17:36.020Z,67.37
2018-05-25T05:20:04.272Z,56.23
2018-05-25T05:22:33.294Z,63.60
2018-05-25T05:25:01.586Z,64.47
2018-05-25T05:27:29.845Z,63.97
2018-05-25T05:29:58.118Z,64.47
2018-05-25T05:32:26.405Z,58.33
2018-05-25T05:34:54.695Z,56.90
2018-05-25T05:37:22.947Z,50.97
2018-05-25T05:39:51.244Z,55.20
2018-05-25T05:42:19.659Z,48.63
2018-05-25T05:44:47.972Z,50.07
2018-05-25T05:47:16.235Z,48.40
2018-05-25T05:49:45.265Z,38.07
2018-05-25T05:52:13.589Z,37.60
2018-05-25T05:54:41.837Z,32.60
2018-05-25T05:57:10.101Z,26.83
2018-05-25T05:59:38.408Z,27.97
2018-05-25T06:02:06.684Z,26.37
2018-05-25T06:04:34.938Z,30.80
2018-05-25T06:07:03.197Z,35.07
2018-05-25T06:09:31.508Z,33.10
2018-05-25T06:11:59.829Z,29.40
2018-05-25T06:14:28.147Z,31.20
2018-05-25T06:16:56.725Z,31.63
2018-05-25T06:19:24.984Z,28.33
2018-05-25T06:21:53.257Z,31.30
2018-05-25T06:24:21.545Z,26.63
2018-05-25T06:26:49.799Z,26.47
2018-05-25T06:29:18.129Z,23.53
2018-05-25T06:31:46.402Z,27.63
2018-05-25T06:34:14.739Z,28.87
2018-05-25T06:36:43.060Z,25.23
2018-05-25T06:39:11.313Z,22.87
2018-05-25T06:41:39.590Z,23.17
2018-05-25T06:44:07.878Z,25.80
2018-05-25T06:46:37.067Z,22.47
2018-05-25T06:49:05.501Z,24.80
2018-05-25T06:51:34.572Z,23.40
2018-05-25T06:54:02.925Z,20.20
2018-05-25T06:56:31.315Z,23.03
2018-05-25T06:58:59.579Z,20.43
2018-05-25T07:01:27.857Z,18.03
2018-05-25T07:03:56.151Z,19.70
2018-05-25T07:06:25.184Z,19.27
2018-05-25T07:08:54.228Z,27.23
2018-05-25T07:11:23.255Z,22.67
2018-05-25T07:13:52.286Z,21.17
2018-05-25T07:16:20.558Z,24.70
2018-05-25T07:18:48.829Z,22.40
2018-05-25T07:21:17.155Z,24.80
2018-05-25T07:23:45.436Z,24.30
2018-05-25T07:26:13.740Z,21.87
2018-05-25T07:28:42.003Z,24.10
2018-05-25T07:31:11.063Z,20.93
2018-05-25T07:33:40.261Z,21.73
2018-05-25T07:36:08.548Z,24.27
2018-05-25T07:38:36.913Z,20.63
2018-05-25T07:41:05.177Z,17.77
2018-05-25T07:43:33.439Z,18.33
2018-05-25T07:46:01.722Z,22.53
2018-05-25T07:48:29.990Z,26.93
2018-05-25T07:50:58.389Z,25.13
2018-05-25T07:53:26.672Z,22.57
2018-05-25T07:55:55.822Z,21.07
2018-05-25T07:58:24.095Z,23.73
2018-05-25T08:00:52.388Z,22.90
2018-05-25T08:03:20.642Z,24.80
2018-05-25T08:05:49.667Z,23.20
2018-05-25T08:08:17.939Z,26.63
2018-05-25T08:10:46.835Z,22.80
2018-05-25T08:13:15.106Z,23.60
2018-05-25T08:15:43.420Z,25.80
2018-05-25T08:18:11.685Z,26.70
2018-05-25T08:20:39.950Z,24.03
2018-05-25T08:23:08.245Z,26.97
2018-05-25T08:25:36.508Z,27.67
2018-05-25T08:28:04.806Z,24.23
2018-05-25T08:30:33.081Z,27.20
2018-05-25T08:33:02.258Z,29.70
2018-05-25T08:35:30.523Z,23.57
2018-05-25T08:37:58.810Z,22.17
2018-05-25T08:40:27.065Z,24.00
2018-05-25T08:42:55.463Z,23.43
2018-05-25T08:45:23.763Z,29.63
2018-05-25T08:47:52.728Z,24.27
2018-05-25T08:50:21.956Z,27.00
2018-05-25T08:52:50.260Z,29.50
2018-05-25T08:55:19.304Z,26.87
2018-05-25T08:57:47.685Z,27.07
2018-05-25T09:00:15.937Z,28.30
2018-05-25T09:02:44.207Z,26.93
2018-05-25T09:05:12.476Z,24.73
2018-05-25T09:07:40.891Z,25.63
2018-05-25T09:10:09.139Z,25.00
2018-05-25T09:12:37.395Z,31.20
2018-05-25T09:15:05.670Z,27.13
2018-05-25T09:17:35.515Z,27.20
2018-05-25T09:20:03.809Z,25.13
2018-05-25T09:22:32.063Z,23.60
2018-05-25T09:25:00.329Z,27.00
2018-05-25T09:27:28.636Z,18.80
2018-05-25T09:29:56.913Z,18.23
2018-05-25T09:32:25.170Z,21.17
2018-05-25T09:34:53.446Z,19.30
2018-05-25T09:37:21.761Z,19.87
2018-05-25T09:39:50.021Z,19.93
2018-05-25T09:42:18.277Z,18.43
2018-05-25T09:44:46.587Z,19.50
2018-05-25T09:47:14.886Z,20.00
2018-05-25T09:49:43.912Z,17.93
2018-05-25T09:52:12.174Z,18.33
2018-05-25T09:54:40.439Z,18.97
2018-05-25T09:57:09.533Z,18.93
2018-05-25T09:59:37.827Z,24.70
2018-05-25T10:02:06.170Z,14.80
2018-05-25T10:04:34.460Z,19.87
2018-05-25T10:07:03.494Z,16.20
2018-05-25T10:09:31.812Z,15.00
2018-05-25T10:12:00.168Z,14.70
2018-05-25T10:14:28.438Z,12.70
2018-05-25T10:16:56.762Z,13.43
2018-05-25T10:19:25.180Z,13.43
2018-05-25T10:21:53.463Z,18.40
2018-05-25T10:24:21.749Z,14.53
2018-05-25T10:26:50.045Z,17.93
2018-05-25T10:29:18.338Z,18.10
2018-05-25T10:31:47.495Z,17.13
2018-05-25T10:34:15.875Z,19.03
2018-05-25T10:36:44.141Z,15.60
2018-05-25T10:39:12.453Z,48.37
2018-05-25T10:41:41.530Z,19.27
2018-05-25T10:44:09.817Z,18.53
2018-05-25T10:46:38.992Z,15.57
2018-05-25T10:49:07.271Z,15.17
2018-05-25T10:51:35.530Z,20.33
2018-05-25T10:54:03.810Z,18.90
2018-05-25T10:56:32.075Z,15.80
2018-05-25T10:59:00.334Z,12.93
2018-05-25T11:01:28.618Z,13.03
2018-05-25T11:03:56.903Z,11.83
2018-05-25T11:06:25.177Z,11.57
2018-05-25T11:08:53.447Z,16.53
2018-05-25T11:11:21.750Z,10.43
2018-05-25T11:13:50.003Z,10.57
2018-05-25T11:16:18.329Z,11.13
2018-05-25T11:18:47.914Z,10.90
2018-05-25T11:21:19.456Z,10.00
2018-05-25T11:23:47.694Z,9.03
2018-05-25T11:26:15.940Z,12.53
2018-05-25T11:28:45.017Z,11.00
2018-05-25T11:31:13.257Z,10.93
2018-05-25T11:33:41.531Z,9.53
2018-05-25T11:36:09.822Z,8.07
2018-05-25T11:38:38.088Z,9.30
2018-05-25T11:41:06.342Z,9.73
2018-05-25T11:43:35.387Z,9.10
2018-05-25T11:46:03.653Z,8.30
2018-05-25T11:48:32.763Z,9.27
2018-05-25T11:51:01.000Z,10.77
2018-05-25T11:53:29.268Z,9.23
2018-05-25T11:55:58.358Z,15.73
2018-05-25T11:58:26.883Z,10.50
2018-05-25T12:00:55.160Z,8.87
2018-05-25T12:03:23.399Z,9.63
2018-05-25T12:05:51.656Z,9.70
2018-05-25T12:08:20.681Z,8.77
2018-05-25T12:10:48.981Z,8.30
2018-05-25T12:13:17.214Z,11.43
2018-05-25T12:15:45.474Z,9.93
2018-05-25T12:18:14.489Z,8.43
2018-05-25T12:20:42.864Z,9.00
2018-05-25T12:23:11.906Z,7.63
2018-05-25T12:25:40.149Z,9.17
2018-05-25T12:28:08.412Z,10.37
2018-05-25T12:30:36.684Z,17.37
2018-05-25T12:33:06.691Z,11.80
2018-05-25T12:35:35.715Z,8.40
2018-05-25T12:38:04.053Z,6.90
2018-05-25T12:40:33.458Z,7.70
2018-05-25T12:43:03.306Z,5.30
2018-05-25T12:45:33.205Z,6.60
2018-05-25T12:48:01.814Z,6.00
2018-05-25T12:50:30.274Z,8.80
2018-05-25T12:52:59.297Z,8.33
2018-05-25T12:55:27.683Z,7.53
2018-05-25T12:57:55.964Z,7.37
2018-05-25T13:00:25.058Z,9.00
2018-05-25T13:02:54.101Z,5.57
2018-05-25T13:05:22.386Z,6.33
2018-05-25T13:07:50.649Z,5.57
2018-05-25T13:10:19.701Z,5.67
2018-05-25T13:12:48.277Z,5.67
2018-05-25T13:15:16.547Z,8.50
2018-05-25T13:17:44.819Z,6.10
2018-05-25T13:20:13.845Z,7.63
2018-05-25T13:22:42.191Z,6.70
2018-05-25T13:25:10.445Z,7.70
2018-05-25T13:27:38.693Z,10.53
2018-05-25T13:30:07.714Z,10.73
2018-05-25T13:32:35.966Z,7.73
2018-05-25T13:35:05.008Z,8.43
2018-05-25T13:37:33.277Z,8.23
2018-05-25T13:40:01.591Z,7.47
2018-05-25T13:42:29.854Z,10.60
2018-05-25T13:44:58.115Z,9.50
2018-05-25T13:47:26.368Z,7.63
2018-05-25T13:49:54.611Z,11.97
2018-05-25T13:52:22.892Z,10.07
2018-05-25T13:54:51.220Z,14.70
2018-05-25T13:57:20.494Z,11.50
2018-05-25T13:59:48.736Z,9.80
2018-05-25T14:02:17.773Z,10.17
2018-05-25T14:04:46.029Z,7.13
2018-05-25T14:07:14.331Z,8.60
2018-05-25T14:09:42.671Z,11.50
2018-05-25T14:12:10.945Z,12.23
2018-05-25T14:14:39.221Z,14.07
2018-05-25T14:17:08.230Z,10.40
2018-05-25T14:19:36.559Z,11.10
2018-05-25T14:22:04.826Z,10.03
2018-05-25T14:24:33.074Z,13.30
2018-05-25T14:27:01.367Z,13.27
2018-05-25T14:29:29.631Z,9.47
2018-05-25T14:31:57.911Z,9.07
2018-05-25T14:34:26.187Z,8.80
2018-05-25T14:36:54.457Z,9.30
2018-05-25T14:39:22.728Z,8.20
2018-05-25T14:41:50.966Z,7.50
2018-05-25T14:44:19.984Z,7.10
2018-05-25T14:46:48.226Z,15.30
2018-05-25T14:49:17.299Z,12.13
2018-05-25T14:51:45.563Z,7.70
2018-05-25T14:54:13.833Z,9.20
2018-05-25T14:56:42.113Z,11.97
2018-05-25T14:59:10.380Z,8.90
2018-05-25T15:01:38.655Z,9.50
2018-05-25T15:04:06.941Z,9.83
2018-05-25T15:06:35.231Z,7.23
2018-05-25T15:09:03.505Z,12.17
2018-05-25T15:11:31.769Z,10.57
2018-05-25T15:14:00.075Z,10.10
2018-05-25T15:16:28.333Z,8.93
2018-05-25T15:18:56.704Z,12.80
2018-05-25T15:21:25.777Z,9.60
2018-05-25T15:23:54.090Z,9.27
2018-05-25T15:26:22.362Z,9.37
2018-05-25T15:28:50.616Z,8.50
2018-05-25T15:31:18.881Z,9.43
2018-05-25T15:33:47.201Z,8.80
2018-05-25T15:36:17.235Z,11.00
2018-05-25T15:38:46.262Z,7.93
2018-05-25T15:41:15.387Z,7.00
2018-05-25T15:43:43.660Z,9.80
2018-05-25T15:46:11.896Z,9.13
2018-05-25T15:48:40.203Z,9.43
2018-05-25T15:51:08.459Z,10.00
2018-05-25T15:53:36.729Z,10.53
2018-05-25T15:56:04.978Z,9.40
2018-05-25T15:58:33.286Z,9.70
2018-05-25T16:01:01.531Z,9.97
2018-05-25T16:03:30.576Z,7.97
2018-05-25T16:05:58.867Z,9.40
2018-05-25T16:08:27.113Z,9.90
2018-05-25T16:10:55.378Z,7.63
2018-05-25T16:13:23.663Z,8.07
2018-05-25T16:15:51.917Z,12.40
2018-05-25T16:18:20.942Z,9.03
2018-05-25T16:20:50.256Z,8.10
2018-05-25T16:23:18.640Z,9.60
2018-05-25T16:25:46.889Z,8.10
2018-05-25T16:28:15.148Z,7.50
2018-05-25T16:30:43.402Z,6.77
2018-05-25T16:33:12.445Z,6.33
2018-05-25T16:35:40.711Z,6.43
2018-05-25T16:38:08.980Z,4.40
2018-05-25T16:40:37.290Z,5.03
2018-05-25T16:43:05.527Z,4.20
2018-05-25T16:45:33.789Z,5.77
2018-05-25T16:48:02.988Z,5.13
2018-05-25T16:50:32.176Z,7.53
2018-05-25T16:53:01.218Z,5.23
2018-05-25T16:55:29.517Z,4.20
2018-05-25T16:57:57.883Z,4.50
2018-05-25T17:00:26.605Z,4.93
2018-05-25T17:02:54.947Z,5.60
2018-05-25T17:05:23.953Z,4.50
2018-05-25T17:07:52.231Z,6.13
2018-05-25T17:10:20.485Z,6.83
2018-05-25T17:12:48.767Z,6.77
2018-05-25T17:15:17.044Z,6.77
2018-05-25T17:17:45.290Z,6.57
2018-05-25T17:20:13.551Z,7.50
2018-05-25T17:22:42.558Z,8.50
2018-05-25T17:25:10.820Z,8.10
2018-05-25T17:27:39.137Z,9.70
2018-05-25T17:30:07.385Z,6.67
2018-05-25T17:32:35.671Z,9.07
2018-05-25T17:35:03.926Z,8.27
2018-05-25T17:37:32.179Z,7.57
2018-05-25T17:40:00.527Z,10.00
2018-05-25T17:42:28.780Z,7.97
2018-05-25T17:44:57.778Z,9.90
2018-05-25T17:47:26.063Z,7.50
2018-05-25T17:49:54.382Z,10.20
2018-05-25T17:52:22.628Z,9.90
2018-05-25T17:54:50.874Z,8.63
2018-05-25T17:57:19.123Z,8.77
2018-05-25T17:59:48.152Z,9.00
2018-05-25T18:02:16.417Z,10.23
2018-05-25T18:04:44.690Z,7.10
2018-05-25T18:07:12.946Z,10.57
2018-05-25T18:09:41.963Z,7.80
2018-05-25T18:12:10.284Z,9.73
2018-05-25T18:14:38.557Z,9.10
2018-05-25T18:17:06.817Z,8.70
2018-05-25T18:19:35.080Z,8.13
2018-05-25T18:22:03.344Z,13.13
2018-05-25T18:24:31.593Z,8.53
2018-05-25T18:27:00.601Z,8.03
2018-05-25T18:29:28.862Z,8.80
2018-05-25T18:31:57.896Z,7.53
2018-05-25T18:34:26.142Z,9.77
2018-05-25T18:36:54.414Z,7.00
2018-05-25T18:39:23.465Z,7.70
2018-05-25T18:41:52.469Z,6.70
2018-05-25T18:44:20.706Z,8.03
2018-05-25T18:46:48.969Z,8.53
2018-05-25T18:49:17.228Z,7.50
2018-05-25T18:51:46.342Z,10.90
2018-05-25T18:54:27.049Z,8.10
2018-05-25T18:56:55.522Z,8.50
2018-05-25T18:59:23.776Z,7.83
2018-05-25T19:01:52.044Z,7.83
2018-05-25T19:04:20.289Z,8.20
2018-05-25T19:06:49.314Z,8.57
2018-05-25T19:09:17.564Z,6.63
2018-05-25T19:11:46.598Z,7.27
2018-05-25T19:14:14.870Z,12.07
2018-05-25T19:16:43.116Z,7.90
2018-05-25T19:19:12.311Z,9.83
2018-05-25T19:21:40.567Z,10.40
2018-05-25T19:24:09.588Z,13.70
2018-05-25T19:26:37.862Z,9.23
2018-05-25T19:29:06.130Z,9.00
2018-05-25T19:31:35.150Z,9.73
2018-05-25T19:34:03.400Z,8.57
2018-05-25T19:36:31.662Z,10.40
2018-05-25T19:39:00.693Z,13.23
2018-05-25T19:41:28.955Z,13.83
2018-05-25T19:43:57.247Z,18.03
2018-05-25T19:46:25.533Z,22.17
2018-05-25T19:48:53.775Z,30.57
2018-05-25T19:51:22.043Z,15.20
2018-05-25T19:53:50.300Z,17.17
2018-05-25T19:56:19.339Z,14.20
2018-05-25T19:58:47.612Z,18.60
2018-05-25T20:01:15.861Z,13.67
2018-05-25T20:03:44.120Z,11.57
2018-05-25T20:06:12.389Z,10.33
2018-05-25T20:08:40.725Z,17.13
2018-05-25T20:11:08.975Z,10.90
2018-05-25T20:13:37.255Z,13.47
2018-05-25T20:16:05.601Z,14.17
2018-05-25T20:18:33.780Z,14.90
2018-05-25T20:21:02.821Z,11.10
2018-05-25T20:23:31.112Z,13.03
2018-05-25T20:25:59.354Z,15.97
2018-05-25T20:28:27.704Z,12.30
2018-05-25T20:30:55.895Z,15.90
2018-05-25T20:33:24.160Z,14.73
2018-05-25T20:35:53.414Z,12.23
2018-05-25T20:38:21.655Z,12.47
2018-05-25T20:40:49.994Z,15.90
2018-05-25T20:43:18.231Z,13.00
2018-05-25T20:45:46.481Z,15.13
2018-05-25T20:48:14.741Z,15.37
2018-05-25T20:50:43.806Z,17.40
2018-05-25T20:53:12.053Z,14.07
2018-05-25T20:55:40.318Z,11.63
2018-05-25T20:58:08.590Z,16.73
2018-05-25T21:00:36.849Z,15.17
2018-05-25T21:03:05.143Z,16.03
2018-05-25T21:05:33.395Z,12.13
2018-05-25T21:08:01.673Z,15.70
2018-05-25T21:10:31.539Z,15.30
2018-05-25T21:12:59.912Z,16.43
2018-05-25T21:15:28.202Z,14.77
2018-05-25T21:17:56.427Z,12.87
2018-05-25T21:20:24.696Z,16.93
2018-05-25T21:22:52.966Z,17.43
2018-05-25T21:25:21.993Z,15.70
2018-05-25T21:27:50.283Z,13.20
2018-05-25T21:30:18.524Z,16.00
2018-05-25T21:32:46.781Z,19.03
2018-05-25T21:35:15.812Z,13.73
2018-05-25T21:37:44.074Z,16.03
2018-05-25T21:40:12.343Z,15.53
2018-05-25T21:42:40.613Z,14.63
2018-05-25T21:45:08.896Z,19.10
2018-05-25T21:47:37.152Z,18.53
2018-05-25T21:50:06.188Z,14.70
2018-05-25T21:52:34.456Z,15.07
2018-05-25T21:55:02.715Z,19.73
2018-05-25T21:57:31.004Z,17.67
2018-05-25T21:59:59.304Z,20.73
2018-05-25T22:02:27.555Z,19.77
2018-05-25T22:04:55.858Z,16.70
2018-05-25T22:07:24.105Z,15.00
2018-05-25T22:09:52.362Z,18.47
2018-05-25T22:12:21.386Z,19.70
2018-05-25T22:14:49.662Z,21.93
2018-05-25T22:17:17.937Z,18.47
2018-05-25T22:19:46.219Z,16.87
2018-05-25T22:22:15.279Z,17.23
2018-05-25T22:24:44.328Z,17.67
2018-05-25T22:27:12.585Z,15.60
2018-05-25T22:29:40.880Z,19.67
2018-05-25T22:32:09.134Z,17.77
2018-05-25T22:34:37.429Z,19.43
2018-05-25T22:37:06.462Z,23.43
2018-05-25T22:39:35.485Z,17.00
2018-05-25T22:42:03.249Z,16.00
2018-05-25T22:44:43.741Z,16.90
2018-05-25T22:47:24.053Z,17.27
2018-05-25T22:50:04.654Z,17.23
2018-05-25T22:52:38.172Z,17.43
2018-05-25T22:55:12.664Z,19.37
2018-05-25T22:57:40.928Z,23.03
2018-05-25T23:00:09.189Z,20.57
2018-05-25T23:02:37.529Z,18.67
2018-05-25T23:05:05.782Z,19.20
2018-05-25T23:07:34.046Z,16.87
2018-05-25T23:10:02.306Z,21.43
2018-05-25T23:12:30.578Z,18.57
2018-05-25T23:14:58.847Z,15.33
2018-05-25T23:17:27.857Z,20.50
2018-05-25T23:19:56.112Z,21.40
2018-05-25T23:22:24.374Z,20.57
2018-05-25T23:24:53.401Z,21.90
2018-05-25T23:27:21.689Z,23.10
2018-05-25T23:29:49.960Z,19.40
2018-05-25T23:32:18.227Z,26.07
2018-05-25T23:34:46.483Z,25.37
2018-05-25T23:37:15.518Z,23.37
2018-05-25T23:39:43.784Z,20.77
2018-05-25T23:42:12.813Z,22.47
2018-05-25T23:44:41.055Z,23.63
2018-05-25T23:47:09.357Z,23.27
2018-05-25T23:49:37.624Z,30.07
2018-05-25T23:52:05.877Z,24.23
2018-05-25T23:54:34.142Z,25.07
2018-05-25T23:57:02.395Z,26.57
2018-05-25T23:59:31.441Z,19.90
